Time;durP1;ratioP1;P1;durP2;ratioP2;P2;SDS_P1;SDS_P2;PMS_P1;PMS_P2;Temp;Humidity;BMP_temperature;BMP_pressure;BME280_temperature;BME280_humidity;BME280_pressure;Samples;Min_cycle;Max_cycle;Signal;HPM_P1;HPM_P2
2021/03/11 00:00:46;;;;;;;41.90;25.00;;;;;;;-2.17;56.28;100972.27;99428;1168;86580;-69
2021/03/11 00:02:51;;;;;;;43.70;24.90;;;;;;;-2.20;56.18;100975.10;99443;1172;75478;-69
2021/03/11 00:04:56;;;;;;;41.00;23.70;;;;;;;-2.19;56.37;100967.05;99437;1175;89459;-63
2021/03/11 00:07:02;;;;;;;42.70;24.00;;;;;;;-2.20;55.94;100965.38;99423;1168;81507;-62
2021/03/11 00:09:08;;;;;;;38.00;22.25;;;;;;;-2.16;55.65;100955.42;99437;1175;67098;-61
2021/03/11 00:11:14;;;;;;;40.60;23.30;;;;;;;-2.15;56.02;100955.34;99433;1172;87210;-61
2021/03/11 00:13:19;;;;;;;41.00;23.30;;;;;;;-2.22;55.69;100946.07;99450;1175;76209;-61
2021/03/11 00:15:25;;;;;;;44.65;23.70;;;;;;;-2.20;56.03;100941.56;99447;1175;88997;-61
2021/03/11 00:17:31;;;;;;;42.67;24.40;;;;;;;-2.27;55.77;100942.87;99417;1175;82525;-61
2021/03/11 00:19:36;;;;;;;44.60;24.70;;;;;;;-2.28;55.77;100933.22;99435;1168;67410;-62
2021/03/11 00:21:46;;;;;;;45.50;24.20;;;;;;;-2.40;56.22;100923.41;99433;1174;87287;-61
2021/03/11 00:23:51;;;;;;;41.40;24.10;;;;;;;-2.47;56.51;100920.28;99458;1174;75808;-61
2021/03/11 00:26:00;;;;;;;46.80;25.40;;;;;;;-2.45;56.27;100915.77;99440;1168;89219;-73
2021/03/11 00:28:06;;;;;;;42.75;24.35;;;;;;;-2.45;56.30;100914.91;99423;1171;82648;-72
2021/03/11 00:30:18;;;;;;;40.75;24.05;;;;;;;-2.44;56.64;100916.59;99447;1172;66925;-62
2021/03/11 00:32:24;;;;;;;44.70;24.40;;;;;;;-2.43;56.84;100918.30;99437;1175;87786;-62
2021/03/11 00:34:29;;;;;;;41.40;25.00;;;;;;;-2.43;56.85;100910.37;99454;1175;75420;-62
2021/03/11 00:36:34;;;;;;;40.85;24.20;;;;;;;-2.43;56.32;100921.80;99445;1173;89326;-62
2021/03/11 00:38:40;;;;;;;44.00;24.90;;;;;;;-2.47;56.86;100920.28;99415;1175;82134;-63
2021/03/11 00:40:45;;;;;;;44.40;23.70;;;;;;;-2.46;56.38;100915.84;99449;1175;67045;-62
2021/03/11 00:42:51;;;;;;;48.50;25.75;;;;;;;-2.48;56.79;100923.89;99434;1168;86954;-62
2021/03/11 00:44:57;;;;;;;46.60;24.65;;;;;;;-2.49;56.60;100914.23;99444;1175;75876;-71
2021/03/11 00:47:03;;;;;;;44.60;25.50;;;;;;;-2.49;57.08;100900.16;99436;1175;89555;-72
2021/03/11 00:49:08;;;;;;;42.57;24.97;;;;;;;-2.52;56.64;100897.70;99427;1175;83205;-71
2021/03/11 00:51:14;;;;;;;44.90;24.05;;;;;;;-2.49;57.51;100898.38;99437;1175;66912;-61
2021/03/11 00:53:19;;;;;;;39.20;22.50;;;;;;;-2.54;57.01;100895.16;99448;1174;86278;-61
2021/03/11 00:55:25;;;;;;;44.60;25.40;;;;;;;-2.57;57.61;100892.70;99437;1168;74904;-71
2021/03/11 00:57:30;;;;;;;46.80;25.30;;;;;;;-2.55;57.32;100897.89;99461;1175;89320;-72
2021/03/11 00:59:36;;;;;;;47.40;24.90;;;;;;;-2.55;56.93;100900.53;99431;1175;82382;-72
2021/03/11 01:01:42;;;;;;;47.30;25.50;;;;;;;-2.55;56.93;100897.89;99436;1175;67083;-72
2021/03/11 01:03:47;;;;;;;43.75;25.75;;;;;;;-2.53;57.84;100896.02;99438;1168;86274;-73
2021/03/11 01:05:53;;;;;;;37.30;20.80;;;;;;;-2.50;57.03;100906.41;99448;1175;75443;-73
2021/03/11 01:07:58;;;;;;;42.95;24.45;;;;;;;-2.52;57.80;100895.06;99438;1175;90672;-72
2021/03/11 01:10:07;;;;;;;44.40;24.70;;;;;;;-2.57;57.17;100900.64;99414;1171;82906;-73
2021/03/11 01:12:14;;;;;;;42.00;24.40;;;;;;;-2.56;57.23;100898.85;99437;1168;66964;-73
2021/03/11 01:14:23;;;;;;;47.25;24.20;;;;;;;-2.57;57.47;100892.70;99433;1175;87109;-73
2021/03/11 01:16:28;;;;;;;45.70;23.83;;;;;;;-2.59;57.36;100897.25;99442;1175;75806;-77
2021/03/11 01:18:34;;;;;;;45.37;24.57;;;;;;;-2.57;56.98;100894.49;99439;1168;89319;-72
2021/03/11 01:20:40;;;;;;;47.95;25.85;;;;;;;-2.56;57.20;100886.48;99437;1174;81488;-63
2021/03/11 01:22:45;;;;;;;43.00;24.70;;;;;;;-2.59;57.25;100891.10;99439;1174;66803;-62
2021/03/11 01:24:53;;;;;;;48.80;24.20;;;;;;;-2.57;57.40;100890.06;99426;1168;86846;-62
2021/03/11 01:26:59;;;;;;;43.90;22.80;;;;;;;-2.56;57.77;100888.27;99450;1173;75164;-62
2021/03/11 01:29:07;;;;;;;42.30;23.10;;;;;;;-2.58;57.49;100882.23;99444;1175;88870;-62
2021/03/11 01:31:12;;;;;;;44.30;24.10;;;;;;;-2.57;57.45;100882.13;99442;1174;82048;-72
2021/03/11 01:33:18;;;;;;;44.60;24.20;;;;;;;-2.60;57.54;100878.81;99442;1167;67040;-72
2021/03/11 01:35:26;;;;;;;42.05;23.80;;;;;;;-2.61;57.62;100875.31;99442;1174;87343;-72
2021/03/11 01:37:32;;;;;;;45.95;23.25;;;;;;;-2.64;57.42;100872.03;99449;1174;76120;-74
2021/03/11 01:39:37;;;;;;;42.90;24.20;;;;;;;-2.60;58.09;100862.95;99447;1173;88864;-70
2021/03/11 01:41:42;;;;;;;39.05;22.40;;;;;;;-2.59;57.36;100862.88;99422;1175;83114;-62
2021/03/11 01:43:48;;;;;;;42.20;23.15;;;;;;;-2.56;57.75;100867.11;99442;1167;66863;-62
2021/03/11 01:45:54;;;;;;;41.60;23.60;;;;;;;-2.62;57.36;100854.27;99442;1175;87039;-70
2021/03/11 01:47:59;;;;;;;43.35;23.65;;;;;;;-2.67;57.64;100853.70;99449;1174;75744;-70
2021/03/11 01:50:07;;;;;;;45.05;23.70;;;;;;;-2.63;58.11;100855.20;99430;1168;89644;-62
2021/03/11 01:52:13;;;;;;;40.30;24.15;;;;;;;-2.63;58.04;100855.20;99424;1175;82235;-62
2021/03/11 01:54:20;;;;;;;39.80;24.10;;;;;;;-2.71;57.80;100845.10;99443;1175;66816;-62
2021/03/11 01:56:25;;;;;;;40.87;23.47;;;;;;;-2.73;58.05;100847.00;99437;1171;86180;-62
2021/03/11 01:58:31;;;;;;;46.40;23.20;;;;;;;-2.69;57.77;100842.38;99442;1168;75217;-62
2021/03/11 02:00:36;;;;;;;44.35;24.65;;;;;;;-2.71;57.89;100844.25;99448;1174;89690;-70
2021/03/11 02:02:44;;;;;;;41.20;23.80;;;;;;;-2.73;57.93;100835.56;99421;1175;82315;-70
2021/03/11 02:04:54;;;;;;;38.30;21.30;;;;;;;-2.76;57.93;100833.11;99449;1175;67047;-70
2021/03/11 02:07:00;;;;;;;43.70;23.70;;;;;;;-2.77;58.31;100836.69;99428;1175;86742;-62
2021/03/11 02:09:07;;;;;;;44.80;22.20;;;;;;;-2.82;58.40;100836.98;99435;1171;74520;-62
2021/03/11 02:11:18;;;;;;;42.40;24.20;;;;;;;-2.81;57.98;100829.91;99443;1168;89813;-70
2021/03/11 02:13:34;;;;;;;41.75;23.70;;;;;;;-2.87;58.03;100832.92;99414;1174;83054;-70
2021/03/11 02:15:47;;;;;;;44.00;24.65;;;;;;;-2.86;58.51;100834.63;99441;1175;67029;-62
2021/03/11 02:18:05;;;;;;;49.20;24.50;;;;;;;-2.80;58.17;100826.33;99426;1168;86528;-62
2021/03/11 02:20:53;;;;;;;43.60;23.65;;;;;;;-2.85;57.97;100818.66;99449;1174;74973;-70
2021/03/11 02:23:26;;;;;;;41.65;22.65;;;;;;;-2.91;58.70;100826.96;99405;1175;89056;-70
2021/03/11 02:25:40;;;;;;;41.90;23.50;;;;;;;-2.91;58.68;100816.39;99431;1168;81322;-72
2021/03/11 02:28:03;;;;;;;46.50;25.60;;;;;;;-2.89;58.54;100819.81;99444;1175;67197;-74
2021/03/11 02:30:13;;;;;;;38.40;21.75;;;;;;;-2.94;58.88;100821.03;99440;1174;87744;-63
2021/03/11 02:32:20;;;;;;;43.80;24.35;;;;;;;-2.94;58.75;100810.47;99442;1172;74622;-63
2021/03/11 02:34:31;;;;;;;38.75;22.30;;;;;;;-2.94;58.89;100806.03;99439;1168;89254;-64
2021/03/11 02:36:40;;;;;;;39.80;21.90;;;;;;;-3.00;58.83;100804.61;99425;1175;82340;-74
2021/03/11 02:38:48;;;;;;;45.30;23.55;;;;;;;-3.00;58.53;100801.12;99450;1174;66957;-73
2021/03/11 02:41:00;;;;;;;39.40;23.00;;;;;;;-3.00;58.25;100799.33;99436;1174;86569;-63
2021/03/11 02:43:11;;;;;;;44.43;24.10;;;;;;;-3.06;58.64;100799.70;99442;1173;75924;-63
2021/03/11 02:45:20;;;;;;;45.00;23.15;;;;;;;-3.05;58.35;100790.80;99443;1173;89699;-63
2021/03/11 02:47:26;;;;;;;48.30;24.60;;;;;;;-3.04;58.31;100789.88;99436;1175;82387;-63
2021/03/11 02:49:35;;;;;;;34.45;18.70;;;;;;;-3.08;58.75;100792.81;99443;1173;67133;-62
2021/03/11 02:51:41;;;;;;;43.07;24.50;;;;;;;-3.10;58.46;100792.03;99432;1175;87842;-62
2021/03/11 02:53:47;;;;;;;46.20;26.85;;;;;;;-3.14;58.72;100779.97;99443;1172;75152;-62
2021/03/11 02:55:59;;;;;;;46.70;24.90;;;;;;;-3.06;59.18;100785.63;99437;1175;89535;-73
2021/03/11 02:58:11;;;;;;;46.80;23.80;;;;;;;-3.11;58.81;100780.64;99424;1174;82701;-72
2021/03/11 03:00:18;;;;;;;44.30;24.80;;;;;;;-3.14;58.97;100782.61;99440;1171;66936;-63
2021/03/11 03:02:24;;;;;;;44.35;25.00;;;;;;;-3.16;59.02;100785.33;99441;1172;86685;-63
2021/03/11 03:04:31;;;;;;;38.00;21.07;;;;;;;-3.26;58.91;100784.20;99448;1175;74520;-63
2021/03/11 03:06:37;;;;;;;45.33;24.63;;;;;;;-3.24;58.95;100786.77;99441;1175;89321;-63
2021/03/11 03:08:45;;;;;;;41.83;23.07;;;;;;;-3.19;59.52;100787.33;99429;1173;82001;-63
2021/03/11 03:10:53;;;;;;;44.50;21.70;;;;;;;-3.18;58.88;100789.00;99442;1175;67039;-63
2021/03/11 03:13:07;;;;;;;42.75;23.30;;;;;;;-3.21;58.76;100791.83;99426;1173;86842;-62
2021/03/11 03:15:15;;;;;;;42.90;23.90;;;;;;;-3.23;59.19;100776.09;99440;1175;75832;-62
2021/03/11 03:17:22;;;;;;;47.90;25.30;;;;;;;-3.17;58.94;100786.29;99459;1173;88428;-62
2021/03/11 03:19:28;;;;;;;46.45;23.55;;;;;;;-3.14;59.32;100782.61;99410;1173;82119;-62
2021/03/11 03:21:36;;;;;;;35.65;22.35;;;;;;;-3.15;59.15;100780.89;99446;1168;66902;-73
2021/03/11 03:23:47;;;;;;;40.05;24.00;;;;;;;-3.17;59.12;100780.16;99437;1173;87371;-73
2021/03/11 03:25:55;;;;;;;42.45;23.00;;;;;;;-3.23;59.31;100778.73;99451;1175;75435;-72
2021/03/11 03:28:01;;;;;;;44.67;23.63;;;;;;;-3.17;58.73;100778.36;99437;1173;89368;-72
2021/03/11 03:30:14;;;;;;;43.35;23.90;;;;;;;-3.19;59.17;100779.41;99441;1175;82954;-72
2021/03/11 03:32:19;;;;;;;44.70;25.50;;;;;;;-3.19;59.17;100782.90;99443;1175;67157;-72
2021/03/11 03:34:28;;;;;;;42.70;23.70;;;;;;;-3.22;59.24;100780.44;99435;1174;87514;-72
2021/03/11 03:36:33;;;;;;;38.20;22.60;;;;;;;-3.29;59.02;100772.95;99456;1171;76079;-72
2021/03/11 03:38:39;;;;;;;41.10;22.85;;;;;;;-3.29;59.31;100773.81;99443;1174;90794;-73
2021/03/11 03:40:48;;;;;;;45.15;23.15;;;;;;;-3.28;58.73;100775.52;99417;1174;83048;-72
2021/03/11 03:43:05;;;;;;;45.90;23.50;;;;;;;-3.30;59.28;100787.13;99441;1174;67204;-72
2021/03/11 03:45:18;;;;;;;43.60;22.63;;;;;;;-3.32;58.70;100781.91;99429;1168;87302;-72
2021/03/11 03:47:24;;;;;;;39.20;21.70;;;;;;;-3.33;59.14;100776.73;99439;1172;75249;-72
2021/03/11 03:49:31;;;;;;;43.60;23.60;;;;;;;-3.35;58.96;100776.81;99465;1174;88970;-72
2021/03/11 03:51:42;;;;;;;42.90;23.30;;;;;;;-3.34;59.75;100782.95;99435;1171;83066;-63
2021/03/11 03:53:51;;;;;;;42.85;23.45;;;;;;;-3.40;59.52;100780.67;99446;1174;66973;-62
2021/03/11 03:56:01;;;;;;;41.30;22.97;;;;;;;-3.41;59.23;100774.56;99430;1169;87780;-73
2021/03/11 03:58:07;;;;;;;47.00;23.95;;;;;;;-3.43;59.56;100776.42;99446;1174;76285;-72
2021/03/11 04:00:15;;;;;;;43.50;23.95;;;;;;;-3.41;59.48;100777.20;99448;1168;89369;-62
2021/03/11 04:02:22;;;;;;;42.10;23.60;;;;;;;-3.39;59.08;100775.31;99427;1175;81785;-62
2021/03/11 04:04:29;;;;;;;46.27;24.97;;;;;;;-3.38;59.21;100774.39;99454;1168;66844;-63
2021/03/11 04:06:40;;;;;;;44.50;24.30;;;;;;;-3.39;59.53;100782.38;99435;1168;86856;-72
2021/03/11 04:08:48;;;;;;;46.55;26.60;;;;;;;-3.39;59.22;100770.03;99455;1171;75282;-72
2021/03/11 04:10:55;;;;;;;43.60;23.70;;;;;;;-3.37;59.56;100773.42;99444;1171;88987;-62
2021/03/11 04:13:00;;;;;;;49.80;25.60;;;;;;;-3.36;59.66;100764.57;99432;1174;82926;-62
2021/03/11 04:15:10;;;;;;;45.55;24.45;;;;;;;-3.35;59.57;100770.70;99449;1174;66932;-63
2021/03/11 04:17:17;;;;;;;46.70;24.20;;;;;;;-3.33;59.49;100761.75;99434;1174;87473;-62
2021/03/11 04:19:25;;;;;;;45.40;25.00;;;;;;;-3.37;59.49;100762.86;99460;1172;74908;-62
2021/03/11 04:21:33;;;;;;;45.67;24.40;;;;;;;-3.37;59.49;100749.66;99431;1172;88767;-72
2021/03/11 04:23:40;;;;;;;45.75;25.10;;;;;;;-3.40;59.21;100748.98;99437;1174;82550;-72
2021/03/11 04:25:46;;;;;;;44.20;23.10;;;;;;;-3.42;59.37;100746.45;99457;1171;67061;-63
2021/03/11 04:27:52;;;;;;;43.80;24.45;;;;;;;-3.40;59.74;100743.70;99438;1173;87622;-62
2021/03/11 04:30:01;;;;;;;48.30;24.80;;;;;;;-3.46;59.14;100750.20;99449;1168;74921;-63
2021/03/11 04:32:08;;;;;;;41.30;23.70;;;;;;;-3.41;59.59;100749.94;99439;1174;89908;-62
2021/03/11 04:34:14;;;;;;;45.90;25.05;;;;;;;-3.43;59.26;100755.30;99432;1174;81974;-62
2021/03/11 04:36:20;;;;;;;39.60;20.50;;;;;;;-3.45;59.55;100740.49;99455;1174;66892;-71
2021/03/11 04:38:26;;;;;;;42.87;23.80;;;;;;;-3.51;59.31;100741.71;99442;1172;87671;-71
2021/03/11 04:40:31;;;;;;;44.37;24.13;;;;;;;-3.48;59.57;100730.11;99444;1167;75040;-71
2021/03/11 04:42:38;;;;;;;42.80;23.65;;;;;;;-3.59;59.45;100734.25;99458;1171;88857;-72
2021/03/11 04:44:44;;;;;;;45.40;24.45;;;;;;;-3.55;59.74;100737.58;99424;1174;82737;-71
2021/03/11 04:46:50;;;;;;;42.60;22.75;;;;;;;-3.57;59.63;100729.72;99442;1174;67123;-62
2021/03/11 04:48:56;;;;;;;47.35;23.75;;;;;;;-3.50;59.16;100730.22;99441;1174;87143;-62
2021/03/11 04:51:04;;;;;;;43.90;24.00;;;;;;;-3.43;59.31;100728.89;99458;1174;76201;-72
2021/03/11 04:53:11;;;;;;;42.83;24.63;;;;;;;-3.41;59.08;100726.17;99445;1171;89016;-71
2021/03/11 04:55:16;;;;;;;42.90;24.30;;;;;;;-3.40;59.60;100733.99;99436;1172;83037;-73
2021/03/11 04:57:22;;;;;;;46.00;24.77;;;;;;;-3.40;59.56;100727.86;99446;1171;66828;-71
2021/03/11 04:59:32;;;;;;;40.05;23.25;;;;;;;-3.38;59.22;100726.00;99443;1174;87817;-71
2021/03/11 05:01:42;;;;;;;47.20;24.10;;;;;;;-3.40;59.35;100725.22;99452;1168;75108;-63
2021/03/11 05:03:52;;;;;;;42.70;22.00;;;;;;;-3.46;59.62;100718.52;99447;1171;88486;-62
2021/03/11 05:05:57;;;;;;;43.10;24.40;;;;;;;-3.39;59.54;100722.50;99411;1175;82853;-71
2021/03/11 05:08:03;;;;;;;40.95;23.40;;;;;;;-3.37;59.29;100720.61;99443;1174;67130;-71
2021/03/11 05:10:12;;;;;;;44.95;24.45;;;;;;;-3.31;59.26;100720.23;99446;1174;87460;-71
2021/03/11 05:12:18;;;;;;;42.50;22.70;;;;;;;-3.24;59.20;100710.16;99456;1172;75598;-72
2021/03/11 05:14:23;;;;;;;41.55;23.90;;;;;;;-3.21;58.96;100708.16;99431;1174;89911;-71
2021/03/11 05:16:31;;;;;;;44.20;22.65;;;;;;;-3.21;58.87;100708.16;99428;1172;82787;-70
2021/03/11 05:18:39;;;;;;;37.15;22.20;;;;;;;-3.15;59.51;100712.20;99443;1171;66973;-71
2021/03/11 05:20:45;;;;;;;42.05;22.15;;;;;;;-3.12;59.14;100714.66;99436;1174;87218;-62
2021/03/11 05:22:52;;;;;;;44.27;23.07;;;;;;;-3.05;59.39;100710.72;99453;1175;75528;-62
2021/03/11 05:24:57;;;;;;;37.67;21.23;;;;;;;-3.01;58.48;100710.41;99439;1175;89503;-71
2021/03/11 05:27:03;;;;;;;41.55;22.30;;;;;;;-2.92;58.81;100703.70;99417;1175;82897;-72
2021/03/11 05:29:09;;;;;;;38.45;22.15;;;;;;;-2.81;58.36;100697.73;99434;1168;67587;-72
2021/03/11 05:31:14;;;;;;;42.60;22.20;;;;;;;-2.72;58.26;100692.70;99434;1174;87769;-72
2021/03/11 05:33:20;;;;;;;40.25;22.15;;;;;;;-2.74;58.35;100686.67;99451;1173;75370;-72
2021/03/11 05:35:25;;;;;;;37.50;21.20;;;;;;;-2.70;58.18;100688.19;99443;1168;88170;-72
2021/03/11 05:37:31;;;;;;;41.10;20.70;;;;;;;-2.62;58.31;100685.04;99422;1174;82661;-72
2021/03/11 05:39:38;;;;;;;38.40;20.90;;;;;;;-2.60;58.15;100683.99;99445;1168;67092;-71
2021/03/11 05:41:45;;;;;;;37.20;20.90;;;;;;;-2.50;58.32;100684.26;99448;1174;87400;-72
2021/03/11 05:43:52;;;;;;;38.10;20.65;;;;;;;-2.37;57.85;100673.71;99445;1167;75232;-72
2021/03/11 05:45:59;;;;;;;36.53;20.30;;;;;;;-2.24;57.51;100670.16;99448;1174;89077;-62
2021/03/11 05:48:06;;;;;;;38.77;20.83;;;;;;;-1.75;57.87;100656.25;99430;1174;81603;-62
2021/03/11 05:50:13;;;;;;;37.00;22.40;;;;;;;-1.21;57.32;100652.44;99467;1167;66853;-72
2021/03/11 05:52:19;;;;;;;35.80;21.20;;;;;;;-0.86;57.05;100653.41;99431;1171;87984;-72
2021/03/11 05:54:25;;;;;;;37.85;21.25;;;;;;;-0.38;56.29;100651.61;99445;1175;75775;-72
2021/03/11 05:56:34;;;;;;;36.55;21.35;;;;;;;-0.09;54.61;100649.45;99457;1167;88880;-73
2021/03/11 05:58:39;;;;;;;39.15;23.70;;;;;;;0.50;55.51;100648.36;99426;1173;83831;-73
2021/03/11 06:00:47;;;;;;;39.85;23.10;;;;;;;1.09;53.48;100629.50;99444;1174;66877;-72
2021/03/11 06:03:00;;;;;;;37.30;23.10;;;;;;;1.64;54.36;100631.17;99442;1174;86838;-72
2021/03/11 06:05:08;;;;;;;38.20;23.00;;;;;;;2.18;53.28;100637.20;99454;1174;75021;-72
2021/03/11 06:07:14;;;;;;;36.20;23.40;;;;;;;2.56;52.91;100633.91;99444;1171;88939;-73
2021/03/11 06:09:21;;;;;;;40.50;23.90;;;;;;;3.10;50.71;100624.73;99433;1168;82376;-72
2021/03/11 06:11:26;;;;;;;38.37;22.13;;;;;;;3.50;50.23;100620.17;99453;1171;66962;-72
2021/03/11 06:13:34;;;;;;;37.05;22.15;;;;;;;3.90;50.66;100612.87;99437;1175;86821;-72
2021/03/11 06:15:42;;;;;;;35.05;21.70;;;;;;;4.18;49.82;100609.33;99454;1175;75435;-63
2021/03/11 06:17:49;;;;;;;34.80;22.90;;;;;;;4.26;47.22;100610.46;99452;1171;88668;-61
2021/03/11 06:19:57;;;;;;;31.95;21.65;;;;;;;4.11;46.56;100610.90;99430;1175;82165;-66
2021/03/11 06:22:06;;;;;;;32.00;22.10;;;;;;;3.58;47.56;100605.14;99447;1174;67018;-62
2021/03/11 06:24:15;;;;;;;34.20;21.83;;;;;;;3.58;47.58;100604.30;99443;1174;87410;-62
2021/03/11 06:26:20;;;;;;;32.90;21.00;;;;;;;3.59;46.53;100597.98;99450;1174;75274;-62
2021/03/11 06:28:54;;;;;;;32.90;21.20;;;;;;;3.76;47.06;100591.95;99446;1171;88962;-62
2021/03/11 06:31:18;;;;;;;30.50;20.70;;;;;;;4.29;47.04;100588.75;99428;1174;82389;-62
2021/03/11 06:33:32;;;;;;;32.05;21.50;;;;;;;4.07;46.18;100577.41;99452;1174;66909;-61
2021/03/11 06:35:42;;;;;;;33.55;22.15;;;;;;;4.13;46.66;100579.52;99451;1167;86666;-70
2021/03/11 06:37:48;;;;;;;31.00;21.00;;;;;;;4.04;45.38;100580.36;99468;1173;74323;-70
2021/03/11 06:39:57;;;;;;;29.87;19.93;;;;;;;3.50;45.79;100580.97;99452;1174;89644;-70
2021/03/11 06:42:02;;;;;;;29.55;20.35;;;;;;;3.43;45.42;100574.47;99431;1167;81475;-61
2021/03/11 06:44:10;;;;;;;30.75;20.60;;;;;;;3.27;45.67;100574.18;99449;1174;66958;-61
2021/03/11 06:46:16;;;;;;;30.50;19.10;;;;;;;3.19;46.24;100566.02;99447;1174;88559;-61
2021/03/11 06:48:25;;;;;;;31.15;20.05;;;;;;;3.26;45.91;100577.00;99445;1174;74561;-61
2021/03/11 06:50:34;;;;;;;31.63;21.20;;;;;;;3.57;45.91;100571.39;99445;1174;89646;-62
2021/03/11 06:52:39;;;;;;;29.70;19.60;;;;;;;4.01;46.25;100569.14;99436;1174;82773;-62
2021/03/11 06:55:00;;;;;;;32.70;20.50;;;;;;;4.68;44.54;100558.22;99451;1174;66966;-63
2021/03/11 06:57:10;;;;;;;33.80;21.00;;;;;;;5.29;44.79;100553.08;99442;1173;87824;-70
2021/03/11 06:59:19;;;;;;;30.60;20.40;;;;;;;5.30;44.48;100554.77;99448;1175;74295;-70
2021/03/11 07:01:35;;;;;;;31.13;19.67;;;;;;;5.55;44.51;100550.50;99441;1175;88570;-71
2021/03/11 07:03:48;;;;;;;31.60;19.50;;;;;;;6.22;43.24;100557.92;99426;1175;81512;-72
2021/03/11 07:05:59;;;;;;;28.80;20.50;;;;;;;6.47;42.74;100547.19;99435;1175;67905;-62
2021/03/11 07:08:13;;;;;;;25.95;18.95;;;;;;;6.81;42.05;100540.98;99443;1174;87500;-62
2021/03/11 07:10:29;;;;;;;28.40;19.90;;;;;;;6.64;41.24;100542.75;99452;1174;74467;-62
2021/03/11 07:12:53;;;;;;;27.00;19.20;;;;;;;6.29;41.60;100538.34;99434;1174;89728;-62
2021/03/11 07:15:13;;;;;;;27.00;18.30;;;;;;;5.88;40.81;100534.55;99440;1174;82746;-63
2021/03/11 07:17:23;;;;;;;29.73;19.53;;;;;;;5.72;41.47;100537.06;99454;1174;66883;-61
2021/03/11 07:19:29;;;;;;;28.90;20.95;;;;;;;5.79;40.19;100530.11;99446;1168;87466;-60
2021/03/11 07:21:44;;;;;;;29.65;22.05;;;;;;;5.61;40.57;100534.63;99464;1173;75483;-71
2021/03/11 07:23:51;;;;;;;30.65;22.25;;;;;;;5.18;39.81;100535.39;99443;1168;89100;-70
2021/03/11 07:26:09;;;;;;;33.10;20.20;;;;;;;5.25;41.09;100531.10;99434;1173;82478;-70
2021/03/11 07:28:26;;;;;;;30.90;21.20;;;;;;;5.46;39.46;100533.50;99455;1167;67158;-71
2021/03/11 07:30:48;;;;;;;32.60;20.45;;;;;;;5.28;40.72;100535.31;99447;1174;87654;-62
2021/03/11 07:32:58;;;;;;;28.25;20.30;;;;;;;5.67;41.18;100528.66;99446;1172;75959;-62
2021/03/11 07:35:06;;;;;;;34.45;21.65;;;;;;;5.87;41.27;100526.67;99454;1174;89523;-63
2021/03/11 07:37:12;;;;;;;30.05;19.75;;;;;;;5.63;41.00;100529.13;99430;1174;81526;-61
2021/03/11 07:39:21;;;;;;;32.25;21.65;;;;;;;5.71;41.39;100526.52;99440;1171;67115;-61
2021/03/11 07:41:29;;;;;;;32.30;21.20;;;;;;;5.74;40.90;100515.48;99433;1171;87557;-62
2021/03/11 07:43:35;;;;;;;30.50;20.30;;;;;;;5.57;40.98;100505.63;99448;1168;75369;-62
2021/03/11 07:45:44;;;;;;;28.20;20.70;;;;;;;5.63;41.31;100502.33;99437;1157;89493;-61
2021/03/11 07:47:53;;;;;;;32.55;21.60;;;;;;;5.72;41.16;100501.38;99422;1168;82915;-61
2021/03/11 07:50:00;;;;;;;29.37;21.27;;;;;;;5.49;40.11;100497.52;99447;1174;66870;-62
2021/03/11 07:52:07;;;;;;;31.73;21.37;;;;;;;5.62;40.67;100485.41;99426;1174;87529;-70
2021/03/11 07:54:14;;;;;;;32.00;20.80;;;;;;;5.75;40.63;100488.52;99449;1174;75804;-71
2021/03/11 07:56:20;;;;;;;31.40;21.60;;;;;;;5.98;40.48;100493.40;99432;1174;89675;-68
2021/03/11 07:58:26;;;;;;;34.90;22.20;;;;;;;5.94;41.48;100500.91;99423;1175;82480;-69
2021/03/11 08:00:55;;;;;;;34.60;22.27;;;;;;;5.90;40.37;100494.20;99456;1168;66877;-65
2021/03/11 08:03:49;;;;;;;34.25;22.35;;;;;;;5.57;40.59;100497.59;99435;1174;87834;-71
2021/03/11 08:06:25;;;;;;;32.65;21.40;;;;;;;5.57;40.02;100493.08;99441;1168;76320;-61
2021/03/11 08:08:42;;;;;;;33.23;22.17;;;;;;;5.29;40.86;100483.44;99429;1171;88747;-61
2021/03/11 08:10:53;;;;;;;30.80;21.20;;;;;;;5.24;41.58;100478.55;99416;1171;83077;-72
2021/03/11 08:13:32;;;;;;;30.50;19.10;;;;;;;4.91;41.61;100473.87;99442;1174;66981;-71
2021/03/11 08:15:41;;;;;;;29.60;19.35;;;;;;;4.85;42.04;100469.11;99438;1174;87192;-60
2021/03/11 08:17:51;;;;;;;33.20;18.90;;;;;;;4.70;41.66;100470.60;99455;1175;74521;-59
2021/03/11 08:19:56;;;;;;;29.20;19.30;;;;;;;4.55;42.33;100482.81;99438;1174;88457;-60
2021/03/11 08:22:05;;;;;;;28.15;19.20;;;;;;;4.12;42.51;100468.21;99423;1171;81704;-73
2021/03/11 08:24:45;;;;;;;31.20;20.55;;;;;;;3.85;42.79;100468.16;99437;1174;66939;-70
2021/03/11 08:26:51;;;;;;;27.43;19.13;;;;;;;3.56;43.74;100459.38;99427;1175;87902;-71
2021/03/11 08:28:56;;;;;;;28.05;18.85;;;;;;;3.66;44.36;100457.52;99442;1171;74604;-71
2021/03/11 08:31:06;;;;;;;27.15;18.05;;;;;;;3.81;44.23;100461.44;99437;1174;89700;-59
2021/03/11 08:33:35;;;;;;;26.10;18.60;;;;;;;3.72;44.23;100456.95;99424;1167;82218;-61
2021/03/11 08:35:42;;;;;;;23.90;16.70;;;;;;;3.64;44.21;100451.48;99445;1174;66843;-59
2021/03/11 08:37:48;;;;;;;25.25;17.70;;;;;;;3.61;44.88;100465.13;99438;1174;87320;-59
2021/03/11 08:39:53;;;;;;;22.90;15.75;;;;;;;3.37;44.58;100459.41;99450;1174;74979;-60
2021/03/11 08:42:47;;;;;;;23.90;17.73;;;;;;;3.37;44.88;100446.05;99448;1174;89302;-60
2021/03/11 08:44:55;;;;;;;23.65;16.90;;;;;;;3.28;44.89;100442.41;99420;1175;82327;-60
2021/03/11 08:47:10;;;;;;;20.70;15.40;;;;;;;3.24;45.26;100426.82;99444;1171;66893;-72
2021/03/11 08:49:44;;;;;;;21.75;14.20;;;;;;;3.24;45.03;100421.48;99438;1173;86877;-72
2021/03/11 08:51:50;;;;;;;17.43;13.00;;;;;;;3.05;45.15;100416.97;99455;1168;75143;-60
2021/03/11 08:53:59;;;;;;;24.00;15.37;;;;;;;2.98;45.42;100414.05;99445;1174;89699;-61
2021/03/11 08:56:41;;;;;;;18.75;14.45;;;;;;;2.98;45.22;100406.04;99437;1174;81574;-60
2021/03/11 08:58:54;;;;;;;21.45;13.90;;;;;;;3.09;45.74;100409.53;99447;1171;66790;-59
2021/03/11 09:01:04;;;;;;;21.00;13.90;;;;;;;3.27;45.81;100387.31;99442;1174;87140;-71
2021/03/11 09:03:40;;;;;;;19.90;15.00;;;;;;;3.28;45.17;100390.83;99449;1174;75020;-71
2021/03/11 09:05:49;;;;;;;21.10;14.40;;;;;;;3.18;45.61;100400.69;99432;1174;89683;-70
2021/03/11 09:08:11;;;;;;;20.15;14.50;;;;;;;3.19;44.81;100381.00;99413;1168;82470;-71
2021/03/11 09:10:23;;;;;;;19.70;13.40;;;;;;;3.11;44.90;100380.88;99438;1171;66875;-72
2021/03/11 09:12:38;;;;;;;19.90;14.00;;;;;;;3.15;44.73;100380.47;99438;1171;86872;-60
2021/03/11 09:14:49;;;;;;;20.30;13.80;;;;;;;3.24;45.41;100368.91;99450;1172;74988;-59
2021/03/11 09:17:03;;;;;;;18.50;12.90;;;;;;;3.26;43.59;100364.30;99444;1174;89359;-72
2021/03/11 09:21:32;;;;;;;18.45;12.00;;;;;;;3.13;43.62;100365.58;99428;1168;67094;-71
2021/03/11 09:23:41;;;;;;;18.20;13.50;;;;;;;3.03;43.44;100352.23;99439;1174;87287;-69
2021/03/11 09:25:50;;;;;;;19.30;12.80;;;;;;;2.98;43.57;100354.50;99447;1174;75872;-58
2021/03/11 09:27:59;;;;;;;20.30;13.70;;;;;;;2.92;43.38;100352.39;99444;1171;89130;-59
2021/03/11 09:30:11;;;;;;;21.90;13.55;;;;;;;2.98;43.71;100346.49;99437;1171;83394;-71
2021/03/11 09:32:17;;;;;;;18.90;13.50;;;;;;;3.09;43.83;100350.83;99448;1171;66929;-71
2021/03/11 09:34:26;;;;;;;21.10;14.30;;;;;;;3.15;43.30;100344.92;99437;1174;87559;-69
2021/03/11 09:36:31;;;;;;;17.55;12.65;;;;;;;3.08;42.96;100346.50;99451;1168;74911;-70
2021/03/11 09:38:39;;;;;;;17.40;11.50;;;;;;;3.31;44.07;100339.83;99470;1157;88665;-59
2021/03/11 09:40:47;;;;;;;21.10;14.50;;;;;;;3.49;42.51;100332.73;99425;1174;82226;-60
2021/03/11 09:43:17;;;;;;;19.90;14.50;;;;;;;3.50;43.24;100340.62;99455;1168;67098;-73
2021/03/11 09:45:37;;;;;;;20.35;14.05;;;;;;;3.77;43.36;100317.58;99373;1177;87555;-72
2021/03/11 09:47:43;;;;;;;20.50;14.77;;;;;;;3.73;42.87;100309.05;99450;1175;75689;-68
2021/03/11 09:50:07;;;;;;;22.67;14.60;;;;;;;3.59;43.01;100293.50;99443;1172;88528;-71
2021/03/11 09:52:17;;;;;;;20.35;14.55;;;;;;;3.57;42.79;100295.48;99426;1174;82810;-71
2021/03/11 09:54:26;;;;;;;21.30;15.05;;;;;;;3.46;42.33;100284.98;99447;1174;67099;-60